Time;durP1;ratioP1;P1;durP2;ratioP2;P2;SDS_P1;SDS_P2;PMS_P1;PMS_P2;Temp;Humidity;BMP_temperature;BMP_pressure;BME280_temperature;BME280_humidity;BME280_pressure;Samples;Min_cycle;Max_cycle;Signal;HPM_P1;HPM_P2
2021/05/29 00:00:12;;;;;;;3.63;2.42;;;;;;;14.28;54.22;100664.84;5014432;28;20053;-84
2021/05/29 00:02:39;;;;;;;5.75;3.10;;;;;;;14.25;54.29;100659.69;5014242;28;20062;-84
2021/05/29 00:05:07;;;;;;;5.22;3.00;;;;;;;14.21;54.11;100661.69;5014492;28;20134;-83
2021/05/29 00:07:34;;;;;;;5.28;3.33;;;;;;;14.17;54.23;100663.63;5014312;28;20057;-84
2021/05/29 00:10:01;;;;;;;4.90;2.75;;;;;;;14.13;54.40;100659.47;5012869;28;20057;-84
2021/05/29 00:12:27;;;;;;;3.90;2.70;;;;;;;14.10;54.53;100651.72;5013926;28;20050;-83
2021/05/29 00:14:54;;;;;;;6.95;3.85;;;;;;;14.06;54.80;100663.41;5012544;28;20046;-84
2021/05/29 00:17:21;;;;;;;4.32;3.33;;;;;;;14.05;55.16;100659.03;5012672;28;20062;-83
2021/05/29 00:19:47;;;;;;;5.53;3.30;;;;;;;14.03;55.08;100661.81;5013489;28;20104;-83
2021/05/29 00:22:14;;;;;;;4.22;3.42;;;;;;;14.03;55.32;100663.59;5013805;28;20054;-84
2021/05/29 00:24:41;;;;;;;4.78;3.67;;;;;;;14.03;55.55;100666.22;5013711;28;20470;-83
2021/05/29 00:27:07;;;;;;;5.15;3.78;;;;;;;14.02;55.91;100661.88;5013939;28;20081;-84
2021/05/29 00:29:34;;;;;;;6.57;3.85;;;;;;;14.03;56.04;100658.28;5013783;28;20458;-84
2021/05/29 00:32:00;;;;;;;8.68;3.80;;;;;;;14.03;56.05;100661.81;5011553;28;20064;-84
2021/05/29 00:34:27;;;;;;;7.82;4.60;;;;;;;14.05;56.23;100666.97;5006780;28;20084;-84
2021/05/29 00:36:54;;;;;;;7.57;4.45;;;;;;;14.05;56.09;100664.34;4994095;28;20050;-84
2021/05/29 00:39:20;;;;;;;6.20;4.22;;;;;;;14.05;56.03;100659.91;4994015;28;20053;-83
2021/05/29 00:41:47;;;;;;;8.00;4.65;;;;;;;14.05;56.24;100664.34;4993715;28;20050;-84
2021/05/29 00:44:14;;;;;;;6.93;4.85;;;;;;;14.03;56.15;100667.09;4993987;28;20054;-84
2021/05/29 00:46:41;;;;;;;9.70;5.22;;;;;;;14.02;56.58;100661.88;4993827;28;20050;-85
2021/05/29 00:49:08;;;;;;;9.35;5.18;;;;;;;14.01;56.50;100668.97;4992603;28;20053;-85
2021/05/29 00:51:37;;;;;;;9.10;5.20;;;;;;;14.00;56.79;100675.22;4992211;28;20050;-85
2021/05/29 00:54:08;;;;;;;8.88;5.88;;;;;;;13.98;57.14;100676.25;4993602;28;20046;-85
2021/05/29 00:56:34;;;;;;;9.35;5.95;;;;;;;13.96;56.93;100671.03;4993603;28;20105;-85
2021/05/29 00:59:02;;;;;;;10.43;6.22;;;;;;;13.93;57.11;100669.41;4993233;28;20511;-85
2021/05/29 01:01:29;;;;;;;8.60;6.70;;;;;;;13.92;57.24;100670.34;4992342;28;20058;-85
2021/05/29 01:03:55;;;;;;;10.25;7.03;;;;;;;13.92;57.42;100674.78;4993134;28;20050;-84
2021/05/29 01:06:22;;;;;;;11.45;6.93;;;;;;;13.91;57.60;100668.63;4992949;28;20138;-85
2021/05/29 01:08:49;;;;;;;12.77;7.47;;;;;;;13.91;57.36;100673.09;4992197;28;20046;-85
2021/05/29 01:11:16;;;;;;;10.57;7.45;;;;;;;13.88;57.52;100668.81;4993050;28;20108;-85
2021/05/29 01:13:43;;;;;;;12.38;7.88;;;;;;;13.87;57.68;100663.59;4993359;28;20062;-86
2021/05/29 01:16:30;;;;;;;13.80;7.93;;;;;;;13.86;57.83;100660.09;4992162;28;20046;-85
2021/05/29 01:18:57;;;;;;;12.52;8.43;;;;;;;13.85;57.60;100662.81;4992028;28;20046;-85
2021/05/29 01:21:23;;;;;;;11.25;8.18;;;;;;;13.80;57.53;100663.09;4993334;28;20050;-84
2021/05/29 01:23:50;;;;;;;14.93;8.38;;;;;;;13.75;57.63;100660.69;4991988;28;20054;-85
2021/05/29 01:26:16;;;;;;;13.80;9.05;;;;;;;13.72;57.71;100657.38;4992903;28;20046;-85
2021/05/29 01:28:43;;;;;;;11.48;8.65;;;;;;;13.66;57.90;100656.78;4993007;28;20050;-85
2021/05/29 01:31:12;;;;;;;13.15;8.23;;;;;;;13.62;57.93;100652.59;4991985;28;20062;-85
2021/05/29 01:33:39;;;;;;;12.18;7.97;;;;;;;13.58;57.91;100653.72;4993261;28;20137;-84
2021/05/29 01:36:09;;;;;;;12.27;8.40;;;;;;;13.53;57.98;100650.47;4992621;28;20046;-85
2021/05/29 01:38:37;;;;;;;17.90;9.23;;;;;;;13.50;58.22;100654.13;4993195;28;20046;-85
2021/05/29 01:41:09;;;;;;;11.60;8.85;;;;;;;13.47;58.57;100654.28;4992908;28;20050;-85
2021/05/29 01:43:38;;;;;;;12.40;8.90;;;;;;;13.46;58.20;100654.34;4995097;28;20100;-85
2021/05/29 01:46:05;;;;;;;13.27;8.32;;;;;;;13.40;57.90;100653.75;4999607;28;20150;-85
2021/05/29 01:48:36;;;;;;;13.93;7.88;;;;;;;13.37;58.11;100660.97;4999414;28;20515;-85
2021/05/29 01:51:04;;;;;;;15.43;8.80;;;;;;;13.33;58.21;100662.94;4999603;28;20518;-85
2021/05/29 01:53:32;;;;;;;16.77;9.65;;;;;;;13.31;58.54;100664.84;4999951;28;20050;-85
2021/05/29 01:56:00;;;;;;;13.27;8.52;;;;;;;13.29;58.61;100671.97;4999830;28;20427;-86
2021/05/29 01:58:27;;;;;;;13.35;8.68;;;;;;;13.27;58.65;100661.50;5012930;28;20058;-85
2021/05/29 02:00:54;;;;;;;13.32;9.40;;;;;;;13.25;58.70;100660.72;5018064;28;20058;-84
2021/05/29 02:03:21;;;;;;;15.95;8.82;;;;;;;13.25;58.85;100662.50;5019766;28;20597;-85
2021/05/29 02:05:48;;;;;;;14.90;9.23;;;;;;;13.24;58.59;100671.38;5020194;28;20100;-85
2021/05/29 02:08:14;;;;;;;13.18;8.43;;;;;;;13.22;58.52;100663.53;5019766;28;20054;-84
2021/05/29 02:10:45;;;;;;;11.07;8.07;;;;;;;13.20;58.97;100668.03;5019936;28;20058;-85
2021/05/29 02:13:20;;;;;;;13.30;7.97;;;;;;;13.20;58.94;100667.19;5019590;28;20072;-85
2021/05/29 02:15:47;;;;;;;12.70;7.88;;;;;;;13.19;58.73;100671.63;5019952;28;20080;-85
2021/05/29 02:18:14;;;;;;;13.68;8.02;;;;;;;13.17;58.75;100665.56;5018405;28;20053;-85
2021/05/29 02:21:10;;;;;;;10.38;6.75;;;;;;;13.15;58.60;100657.72;5019913;28;20099;-84
2021/05/29 02:23:42;;;;;;;10.88;7.30;;;;;;;13.12;58.78;100655.22;5011042;28;20050;-85
2021/05/29 02:26:12;;;;;;;12.20;7.45;;;;;;;13.11;58.61;100664.09;5019519;28;20492;-86
2021/05/29 02:28:41;;;;;;;14.65;8.38;;;;;;;13.08;58.56;100658.97;5019728;28;20522;-85
2021/05/29 02:31:09;;;;;;;11.38;7.43;;;;;;;13.08;58.58;100663.41;5019509;28;20053;-85
2021/05/29 02:33:37;;;;;;;12.93;7.53;;;;;;;13.03;58.60;100664.53;5018433;28;20053;-86
2021/05/29 02:36:05;;;;;;;11.57;7.82;;;;;;;13.01;58.91;100661.09;5019495;28;20096;-85
2021/05/29 02:38:34;;;;;;;12.32;8.13;;;;;;;13.00;58.79;100664.66;5019682;28;20058;-85
2021/05/29 02:41:06;;;;;;;12.60;7.70;;;;;;;12.98;58.93;100668.34;5019427;28;20500;-85
2021/05/29 02:43:34;;;;;;;11.43;7.22;;;;;;;12.97;58.74;100664.81;5019511;28;20088;-84
2021/05/29 02:46:00;;;;;;;14.05;8.43;;;;;;;12.96;59.05;100668.41;5019713;28;20045;-85
2021/05/29 02:48:27;;;;;;;16.70;8.43;;;;;;;12.94;59.40;100667.66;5019573;28;20096;-84
2021/05/29 02:50:54;;;;;;;11.23;8.00;;;;;;;12.94;59.32;100662.38;5018094;28;20506;-84
2021/05/29 02:53:20;;;;;;;15.02;7.82;;;;;;;12.94;59.54;100665.00;5018680;28;20061;-84
2021/05/29 02:55:47;;;;;;;11.30;8.18;;;;;;;12.94;59.64;100666.78;5015196;28;20053;-84
2021/05/29 02:58:14;;;;;;;10.68;7.50;;;;;;;12.93;59.31;100665.09;5015388;28;20061;-84
2021/05/29 03:00:46;;;;;;;15.18;8.15;;;;;;;12.90;60.10;100669.56;5015797;28;20100;-84
2021/05/29 03:03:14;;;;;;;12.73;7.97;;;;;;;12.90;59.58;100672.22;5016372;28;20061;-85
2021/05/29 03:05:43;;;;;;;9.40;7.07;;;;;;;12.88;59.56;100671.47;5015096;28;20104;-85
2021/05/29 03:08:11;;;;;;;16.25;8.50;;;;;;;12.87;59.56;100659.16;5014967;28;20054;-85
2021/05/29 03:10:40;;;;;;;14.38;8.70;;;;;;;12.84;59.65;100664.63;5014626;28;20053;-84
2021/05/29 03:13:08;;;;;;;14.27;8.70;;;;;;;12.81;59.59;100659.50;5015961;28;20050;-85
2021/05/29 03:15:35;;;;;;;10.60;7.15;;;;;;;12.80;59.41;100662.22;5015746;28;20103;-85
2021/05/29 03:18:05;;;;;;;11.60;7.57;;;;;;;12.76;59.68;100672.09;5015995;28;20061;-85
2021/05/29 03:20:33;;;;;;;11.48;6.85;;;;;;;12.73;59.48;100664.31;5014560;28;20060;-85
2021/05/29 03:23:00;;;;;;;12.57;7.43;;;;;;;12.70;59.25;100664.47;5015600;28;20492;-85
2021/05/29 03:25:26;;;;;;;13.95;8.38;;;;;;;12.67;59.31;100680.50;5015057;28;20056;-85
2021/05/29 03:27:54;;;;;;;14.45;8.02;;;;;;;12.62;59.57;100673.66;5014481;28;20200;-86
2021/05/29 03:30:24;;;;;;;14.02;8.82;;;;;;;12.59;59.87;100678.22;5016025;28;20847;-85
2021/05/29 03:32:51;;;;;;;12.05;7.20;;;;;;;12.56;59.51;100683.69;5015934;28;20388;-86
2021/05/29 03:35:18;;;;;;;13.00;8.18;;;;;;;12.52;59.42;100677.69;5016001;28;20450;-86
2021/05/29 03:37:45;;;;;;;11.93;8.52;;;;;;;12.48;59.56;100690.19;5014809;28;20054;-85
2021/05/29 03:40:14;;;;;;;18.70;8.32;;;;;;;12.45;59.77;100692.97;5016077;28;20100;-85
2021/05/29 03:42:43;;;;;;;16.83;8.82;;;;;;;12.42;59.97;100702.84;5015767;28;20054;-86
2021/05/29 03:45:13;;;;;;;24.48;9.95;;;;;;;12.41;60.55;100709.06;5015468;28;20054;-84
2021/05/29 03:47:40;;;;;;;47.75;9.02;;;;;;;12.39;60.61;100706.50;5015551;28;20546;-84
2021/05/29 03:50:10;;;;;;;61.70;10.65;;;;;;;12.38;60.84;100710.06;5015731;28;20103;-84
2021/05/29 03:52:36;;;;;;;26.67;10.27;;;;;;;12.40;60.80;100716.13;5014243;28;20054;-84
2021/05/29 03:55:04;;;;;;;61.58;10.45;;;;;;;12.39;60.93;100717.06;5015362;28;20515;-85
2021/05/29 03:57:31;;;;;;;19.23;10.32;;;;;;;12.40;61.08;100721.41;5015772;28;20389;-85
2021/05/29 03:59:57;;;;;;;37.25;9.80;;;;;;;12.41;60.79;100720.47;5014882;28;20100;-84
2021/05/29 04:02:24;;;;;;;18.55;10.00;;;;;;;12.42;61.25;100714.28;5014792;28;20045;-84
2021/05/29 04:04:51;;;;;;;33.28;11.07;;;;;;;12.44;61.39;100725.59;5015291;28;20046;-85
2021/05/29 04:07:18;;;;;;;17.38;9.80;;;;;;;12.45;61.10;100721.19;5014156;28;20053;-84
2021/05/29 04:09:44;;;;;;;16.30;10.20;;;;;;;12.47;61.30;100727.22;5013954;28;20049;-86
2021/05/29 04:12:11;;;;;;;13.35;9.98;;;;;;;12.46;61.48;100726.41;5015191;28;20104;-85
2021/05/29 04:14:37;;;;;;;14.50;10.10;;;;;;;12.48;61.63;100713.09;5014968;28;20495;-84
2021/05/29 04:17:04;;;;;;;17.92;11.13;;;;;;;12.50;61.89;100727.09;5014903;28;20407;-86
2021/05/29 04:19:31;;;;;;;16.02;10.23;;;;;;;12.54;61.88;100726.00;5015072;28;20046;-85
2021/05/29 04:21:58;;;;;;;15.68;10.68;;;;;;;12.57;61.94;100728.50;5014793;28;20466;-87
2021/05/29 04:24:24;;;;;;;15.85;10.43;;;;;;;12.62;62.07;100737.06;5015083;28;20064;-85
2021/05/29 04:26:51;;;;;;;15.27;10.48;;;;;;;12.68;62.18;100730.59;5014715;28;20046;-85
2021/05/29 04:29:17;;;;;;;14.88;11.25;;;;;;;12.73;62.31;100727.72;5014699;28;20128;-86
2021/05/29 04:31:44;;;;;;;16.80;11.13;;;;;;;12.78;62.37;100733.63;5013401;28;20092;-87
2021/05/29 04:34:11;;;;;;;14.77;9.85;;;;;;;12.85;62.41;100734.16;5015277;28;20084;-85
2021/05/29 04:36:38;;;;;;;15.32;10.65;;;;;;;12.91;62.49;100731.22;5012550;28;20062;-85
2021/05/29 04:39:05;;;;;;;15.25;10.02;;;;;;;12.98;62.65;100731.75;5013811;28;20054;-85
2021/05/29 04:41:32;;;;;;;13.93;10.50;;;;;;;13.02;62.45;100731.50;5013416;28;20101;-84
2021/05/29 04:43:59;;;;;;;17.35;11.65;;;;;;;13.08;62.35;100727.69;5012607;28;20053;-85
2021/05/29 04:46:26;;;;;;;14.98;10.95;;;;;;;13.14;62.32;100735.31;5013845;28;20475;-84
2021/05/29 04:48:53;;;;;;;15.55;10.77;;;;;;;13.20;62.21;100736.78;5012940;28;20104;-84
2021/05/29 04:51:20;;;;;;;17.13;10.15;;;;;;;13.23;62.16;100733.97;5013477;28;20065;-85
2021/05/29 04:53:48;;;;;;;20.58;11.85;;;;;;;13.28;62.37;100737.22;5013598;28;20045;-83
2021/05/29 04:56:16;;;;;;;16.67;11.40;;;;;;;13.32;62.30;100740.56;5012156;28;20060;-85
2021/05/29 04:58:42;;;;;;;15.95;10.40;;;;;;;13.37;62.25;100742.97;5013571;28;20057;-85
2021/05/29 05:01:11;;;;;;;16.23;11.38;;;;;;;13.43;62.09;100745.28;5012845;28;20046;-84
2021/05/29 05:03:39;;;;;;;15.73;11.15;;;;;;;13.47;62.34;100740.69;5012971;28;20100;-85
2021/05/29 05:06:07;;;;;;;17.95;10.85;;;;;;;13.52;62.41;100746.63;5012757;28;20349;-85
2021/05/29 05:08:34;;;;;;;14.50;10.68;;;;;;;13.58;62.23;100745.44;5012584;28;20058;-85
2021/05/29 05:11:00;;;;;;;13.80;11.07;;;;;;;13.63;62.22;100749.53;5011416;28;20060;-85
2021/05/29 05:13:28;;;;;;;16.35;10.63;;;;;;;13.68;62.35;100742.22;5012461;28;20400;-85
2021/05/29 05:15:54;;;;;;;15.63;10.68;;;;;;;13.75;62.24;100747.19;5012827;28;20054;-85
2021/05/29 05:18:22;;;;;;;18.05;10.75;;;;;;;13.81;62.17;100752.13;5011898;28;20056;-85
2021/05/29 05:20:50;;;;;;;15.73;10.95;;;;;;;13.87;62.17;100751.78;5010898;28;20064;-85
2021/05/29 05:23:21;;;;;;;16.55;10.90;;;;;;;13.91;62.05;100753.31;5011118;28;20061;-84
2021/05/29 05:25:50;;;;;;;18.05;11.18;;;;;;;13.98;62.05;100750.34;5012224;28;20064;-84
2021/05/29 05:28:29;;;;;;;14.95;10.70;;;;;;;14.03;61.80;100756.25;5012269;28;20454;-85
2021/05/29 05:31:02;;;;;;;14.57;10.13;;;;;;;14.05;61.96;100747.28;4998030;28;20065;-84
2021/05/29 05:33:33;;;;;;;13.55;10.25;;;;;;;14.11;61.58;100748.72;4980959;28;20089;-85
2021/05/29 05:36:06;;;;;;;13.50;10.15;;;;;;;14.15;61.53;100744.97;4979261;28;20051;-84
2021/05/29 05:38:34;;;;;;;12.77;10.30;;;;;;;14.19;61.50;100750.94;4992649;28;20050;-85
2021/05/29 05:41:01;;;;;;;14.07;10.65;;;;;;;14.23;61.33;100751.59;4992415;28;20467;-84
2021/05/29 05:43:28;;;;;;;13.55;9.57;;;;;;;14.26;61.05;100748.78;4991260;28;20129;-84
2021/05/29 05:45:56;;;;;;;14.65;10.02;;;;;;;14.28;61.14;100747.75;4992919;28;20070;-85
2021/05/29 05:48:25;;;;;;;12.20;9.30;;;;;;;14.30;60.86;100745.03;4993154;28;20581;-84
2021/05/29 05:50:59;;;;;;;13.18;9.57;;;;;;;14.33;60.76;100745.69;4993468;28;20059;-85
2021/05/29 05:53:28;;;;;;;13.85;9.60;;;;;;;14.36;60.89;100751.78;4993068;28;20101;-83
2021/05/29 05:55:59;;;;;;;14.45;9.48;;;;;;;14.39;60.87;100741.00;4990984;28;20057;-84
2021/05/29 05:58:28;;;;;;;12.60;9.32;;;;;;;14.41;60.79;100745.28;4991598;28;20046;-85
2021/05/29 06:00:56;;;;;;;13.48;9.30;;;;;;;14.46;60.67;100748.50;4991542;28;20411;-85
2021/05/29 06:03:23;;;;;;;13.48;9.38;;;;;;;14.50;60.50;100751.81;4993003;28;20046;-84
2021/05/29 06:05:52;;;;;;;11.43;8.27;;;;;;;14.52;60.31;100765.00;4992898;28;20054;-84
2021/05/29 06:08:20;;;;;;;15.80;9.65;;;;;;;14.54;60.19;100766.59;4991319;28;20078;-84
2021/05/29 06:10:49;;;;;;;12.48;9.05;;;;;;;14.56;60.52;100766.53;4992617;28;20046;-84
2021/05/29 06:21:48;;;;;;;14.30;8.55;;;;;;;14.66;60.27;100780.94;4992886;28;20051;-85
2021/05/29 06:24:17;;;;;;;11.98;8.65;;;;;;;14.69;60.43;100787.88;4992611;28;20419;-84
2021/05/29 06:26:44;;;;;;;13.02;8.68;;;;;;;14.72;60.52;100788.53;4992665;28;20069;-84
2021/05/29 06:29:11;;;;;;;13.25;9.02;;;;;;;14.76;60.39;100785.72;4992352;28;20054;-84
2021/05/29 06:31:38;;;;;;;11.45;8.45;;;;;;;14.78;60.32;100792.69;4994488;28;20056;-84
2021/05/29 06:34:05;;;;;;;9.90;7.50;;;;;;;14.80;59.89;100793.44;4994730;28;20046;-84
2021/05/29 06:36:32;;;;;;;10.20;7.32;;;;;;;14.84;59.83;100796.78;4995196;28;20062;-84
2021/05/29 06:38:59;;;;;;;11.05;7.78;;;;;;;14.87;59.60;100803.69;4996091;28;20085;-84
2021/05/29 06:41:26;;;;;;;13.27;7.90;;;;;;;14.88;59.34;100800.91;4996206;28;20397;-85
2021/05/29 06:43:53;;;;;;;9.32;7.47;;;;;;;14.89;59.14;100801.78;4996048;28;20054;-84
2021/05/29 06:46:19;;;;;;;9.93;7.43;;;;;;;14.90;59.08;100798.19;4994784;28;20109;-84
2021/05/29 06:48:46;;;;;;;10.57;7.70;;;;;;;14.90;59.35;100799.06;4996110;28;20130;-84
2021/05/29 06:51:19;;;;;;;13.63;7.55;;;;;;;14.91;59.10;100798.09;4995155;28;20050;-84
2021/05/29 06:53:49;;;;;;;9.45;6.68;;;;;;;14.93;59.02;100803.31;4996070;28;20104;-84
2021/05/29 06:59:02;;;;;;;11.40;6.97;;;;;;;14.97;59.01;100804.84;4995738;28;20050;-85
2021/05/29 07:01:29;;;;;;;9.60;6.38;;;;;;;14.99;58.96;100808.25;4995017;28;20058;-84
2021/05/29 07:03:57;;;;;;;9.63;6.95;;;;;;;15.01;58.83;100810.81;4995543;28;20515;-84
2021/05/29 07:06:24;;;;;;;8.98;6.47;;;;;;;15.02;58.46;100812.53;4996714;28;20057;-84
2021/05/29 07:08:51;;;;;;;11.45;6.35;;;;;;;15.04;58.24;100813.28;4995807;28;20104;-84
2021/05/29 07:11:18;;;;;;;7.60;6.00;;;;;;;15.04;58.28;100808.00;4995634;28;20057;-85
2021/05/29 07:13:45;;;;;;;7.80;5.72;;;;;;;15.04;57.75;100811.50;4996269;28;20054;-84
2021/05/29 07:16:11;;;;;;;12.43;6.38;;;;;;;15.04;57.92;100815.94;4996105;28;20467;-84
2021/05/29 07:18:45;;;;;;;8.23;6.25;;;;;;;15.04;57.84;100819.47;4995824;28;20089;-84
2021/05/29 07:21:14;;;;;;;10.82;6.40;;;;;;;15.04;57.91;100818.59;4995544;28;20054;-84
2021/05/29 07:23:41;;;;;;;10.00;6.65;;;;;;;15.05;58.04;100821.16;4994991;28;20053;-85
2021/05/29 07:26:08;;;;;;;8.25;6.28;;;;;;;15.07;58.19;100818.41;4995428;28;20698;-84
2021/05/29 07:28:35;;;;;;;9.27;6.03;;;;;;;15.08;58.17;100818.34;4995350;28;20050;-85
2021/05/29 07:31:03;;;;;;;7.72;6.45;;;;;;;15.13;58.13;100830.47;4995398;28;20109;-84
2021/05/29 07:33:30;;;;;;;8.02;5.97;;;;;;;15.14;58.07;100827.69;4995675;28;20054;-84
2021/05/29 07:35:58;;;;;;;7.57;5.55;;;;;;;15.18;57.86;100828.41;4995310;28;20459;-84
2021/05/29 07:38:25;;;;;;;13.68;6.75;;;;;;;15.20;58.09;100837.09;4995565;28;20124;-84
2021/05/29 07:40:52;;;;;;;9.23;6.20;;;;;;;15.23;57.79;100840.44;4993622;28;20108;-85
2021/05/29 07:43:19;;;;;;;9.73;6.40;;;;;;;15.24;57.71;100836.84;4995299;28;20047;-84
2021/05/29 07:45:46;;;;;;;13.82;6.55;;;;;;;15.26;57.61;100835.88;4995857;28;20057;-85
2021/05/29 07:48:13;;;;;;;8.70;6.45;;;;;;;15.28;57.76;100829.53;4995024;28;20121;-84
2021/05/29 07:51:03;;;;;;;10.27;5.47;;;;;;;15.31;57.48;100841.75;4995146;28;20050;-84
2021/05/29 07:53:32;;;;;;;7.55;5.63;;;;;;;15.33;57.53;100835.41;4994680;28;20046;-84
2021/05/29 07:56:02;;;;;;;7.30;5.55;;;;;;;15.35;57.43;100843.28;4993937;28;20054;-85
2021/05/29 07:58:29;;;;;;;8.45;5.82;;;;;;;15.37;57.39;100836.94;4994660;28;20046;-84
2021/05/29 08:00:57;;;;;;;8.40;6.03;;;;;;;15.38;57.66;100840.47;4994457;28;20416;-85
2021/05/29 08:03:26;;;;;;;11.02;6.43;;;;;;;15.40;57.60;100833.25;4993992;28;20050;-85
2021/05/29 08:05:54;;;;;;;7.45;6.50;;;;;;;15.45;57.51;100841.81;4994790;28;20054;-84
2021/05/29 08:08:22;;;;;;;8.95;6.95;;;;;;;15.49;57.71;100848.66;4994433;28;20085;-84
2021/05/29 08:10:51;;;;;;;9.18;6.10;;;;;;;15.52;57.51;100839.63;4994208;28;20058;-84
2021/05/29 08:13:18;;;;;;;8.05;6.63;;;;;;;15.56;57.68;100842.94;4993116;28;20058;-84
2021/05/29 08:15:46;;;;;;;9.90;6.68;;;;;;;15.59;57.58;100842.78;4994926;28;20051;-84
2021/05/29 08:18:16;;;;;;;8.85;6.25;;;;;;;15.62;57.51;100845.22;4994315;28;20050;-84
2021/05/29 08:20:50;;;;;;;7.57;6.18;;;;;;;15.61;57.36;100847.03;4994253;28;20109;-84
2021/05/29 08:23:18;;;;;;;11.25;7.05;;;;;;;15.67;57.44;100847.59;4993867;28;20065;-84
2021/05/29 08:25:46;;;;;;;9.60;6.88;;;;;;;15.70;57.46;100850.09;4993642;28;20507;-84
2021/05/29 08:28:13;;;;;;;7.22;6.15;;;;;;;15.72;57.49;100850.81;4994297;28;20050;-86
2021/05/29 08:30:40;;;;;;;7.60;6.15;;;;;;;15.75;57.37;100854.13;4994745;28;20058;-86
2021/05/29 08:33:07;;;;;;;9.38;6.10;;;;;;;15.80;57.35;100858.31;4994060;28;20050;-86
2021/05/29 08:35:35;;;;;;;10.35;6.38;;;;;;;15.83;56.96;100852.81;4994226;28;20057;-86
2021/05/29 08:38:05;;;;;;;10.02;5.85;;;;;;;15.84;56.78;100858.03;4993882;28;20138;-85
2021/05/29 08:40:32;;;;;;;8.25;5.82;;;;;;;15.87;56.86;100857.84;4994300;28;20054;-84
2021/05/29 08:42:59;;;;;;;7.95;5.63;;;;;;;15.89;56.98;100861.25;4993978;28;20061;-85
2021/05/29 08:45:26;;;;;;;11.13;6.65;;;;;;;15.92;56.85;100865.53;4993974;28;20058;-85
2021/05/29 08:47:52;;;;;;;8.63;5.57;;;;;;;15.94;56.44;100866.31;4992983;28;20046;-85
2021/05/29 08:50:19;;;;;;;11.05;6.50;;;;;;;15.98;56.55;100875.81;4993800;28;20105;-85
2021/05/29 08:52:48;;;;;;;8.63;5.93;;;;;;;16.01;56.66;100880.09;4991912;28;20100;-85
2021/05/29 08:55:17;;;;;;;8.80;6.50;;;;;;;16.04;56.46;100874.59;4993275;28;20054;-85
2021/05/29 08:57:44;;;;;;;10.82;6.18;;;;;;;16.07;56.35;100876.19;4993973;28;20046;-86
2021/05/29 09:00:15;;;;;;;9.65;5.97;;;;;;;16.10;56.14;100875.97;4992708;28;20451;-86
2021/05/29 09:03:00;;;;;;;7.82;5.65;;;;;;;16.08;56.11;100873.44;4993706;28;20504;-86
2021/05/29 09:05:42;;;;;;;8.65;6.22;;;;;;;16.14;55.96;100885.47;4993538;28;20393;-86
2021/05/29 09:08:13;;;;;;;8.43;5.82;;;;;;;16.21;55.76;100884.13;4992490;28;20073;-86
2021/05/29 09:10:47;;;;;;;7.25;5.68;;;;;;;16.27;56.18;100880.25;4993279;28;20073;-86
2021/05/29 09:13:16;;;;;;;9.57;6.00;;;;;;;16.31;55.93;100880.91;4992356;28;20046;-85
2021/05/29 09:15:52;;;;;;;6.63;5.80;;;;;;;16.33;56.00;100881.66;4993512;28;20050;-86
2021/05/29 09:18:39;;;;;;;9.50;6.53;;;;;;;16.37;56.17;100883.19;4992838;28;20046;-86
2021/05/29 09:21:31;;;;;;;8.93;6.13;;;;;;;16.46;55.89;100887.03;4993346;28;20062;-86
2021/05/29 09:24:03;;;;;;;9.45;6.28;;;;;;;16.57;56.04;100887.22;4992995;28;20050;-85
2021/05/29 09:26:53;;;;;;;9.65;6.05;;;;;;;16.59;56.12;100887.97;4993244;28;20058;-86
2021/05/29 09:29:25;;;;;;;7.97;5.80;;;;;;;16.69;55.13;100890.88;4993026;28;20050;-86
2021/05/29 09:31:55;;;;;;;7.60;5.60;;;;;;;16.76;55.70;100892.19;4992194;28;20070;-85
2021/05/29 09:34:43;;;;;;;8.60;6.07;;;;;;;16.77;55.19;100893.91;4993497;28;20054;-86
2021/05/29 09:37:19;;;;;;;10.45;5.88;;;;;;;16.84;55.73;100905.00;4992991;28;20104;-86
2021/05/29 09:39:56;;;;;;;8.57;6.22;;;;;;;16.93;54.96;100904.38;4992948;28;20046;-86
2021/05/29 09:42:28;;;;;;;7.65;5.55;;;;;;;17.02;54.30;100902.06;4992869;28;20563;-85
2021/05/29 09:44:54;;;;;;;8.45;5.65;;;;;;;17.09;55.34;100907.88;4992700;28;20050;-86
2021/05/29 09:47:25;;;;;;;6.57;5.35;;;;;;;17.15;55.60;100903.00;4992982;28;20112;-86
2021/05/29 09:49:54;;;;;;;7.25;5.40;;;;;;;17.24;55.13;100909.53;4993007;28;20058;-86
2021/05/29 09:52:36;;;;;;;8.10;5.78;;;;;;;17.31;54.77;100913.47;4991907;28;20053;-86
2021/05/29 09:55:11;;;;;;;8.18;4.95;;;;;;;17.39;53.65;100901.47;5011032;28;20050;-85
2021/05/29 09:57:52;;;;;;;8.55;5.53;;;;;;;17.47;53.50;100900.94;5012602;28;20046;-86
2021/05/29 10:00:20;;;;;;;7.38;5.65;;;;;;;17.58;55.09;100904.56;5011373;28;20393;-85
2021/05/29 10:03:04;;;;;;;8.18;5.25;;;;;;;17.63;53.32;100904.25;4992071;28;20046;-84
2021/05/29 10:05:33;;;;;;;8.25;5.22;;;;;;;17.74;54.19;100902.66;4995720;28;20451;-85
2021/05/29 10:08:00;;;;;;;7.97;5.60;;;;;;;17.81;54.12;100898.63;4996818;28;20054;-85
2021/05/29 10:10:27;;;;;;;7.80;5.43;;;;;;;17.87;54.19;100905.31;4995707;28;20046;-85
2021/05/29 10:12:54;;;;;;;7.15;5.40;;;;;;;17.93;54.03;100911.09;4995448;28;20065;-85
2021/05/29 10:15:21;;;;;;;6.63;5.00;;;;;;;17.98;53.69;100908.06;4995145;28;20050;-85
2021/05/29 10:17:48;;;;;;;6.38;4.75;;;;;;;18.03;53.96;100905.09;4996671;28;20050;-85
2021/05/29 10:20:16;;;;;;;6.55;4.75;;;;;;;18.09;54.17;100908.22;4996740;28;20051;-86
2021/05/29 10:22:46;;;;;;;7.50;5.30;;;;;;;18.17;53.57;100906.84;4996505;28;20065;-86
2021/05/29 10:25:15;;;;;;;9.20;5.28;;;;;;;18.26;53.38;100916.84;4996543;28;20046;-85
2021/05/29 10:27:45;;;;;;;8.13;5.82;;;;;;;18.34;53.21;100910.94;4994892;28;20058;-85
2021/05/29 10:30:13;;;;;;;6.20;4.80;;;;;;;18.45;53.55;100908.38;4997092;28;20050;-86
2021/05/29 10:32:39;;;;;;;6.90;4.78;;;;;;;18.56;53.71;100906.75;4995329;28;20050;-85
2021/05/29 10:35:09;;;;;;;6.85;5.22;;;;;;;18.67;53.26;100905.94;4996066;28;20137;-85
2021/05/29 10:37:41;;;;;;;6.70;5.18;;;;;;;18.78;52.59;100913.16;4996360;28;20057;-85
2021/05/29 10:40:28;;;;;;;7.50;5.43;;;;;;;18.86;51.99;100914.31;4996184;28;20117;-85
2021/05/29 10:43:09;;;;;;;8.85;5.40;;;;;;;18.95;51.58;100911.94;4995941;28;20713;-85
2021/05/29 10:45:38;;;;;;;7.72;5.00;;;;;;;19.05;52.00;100912.97;4995948;28;20526;-84
2021/05/29 10:48:12;;;;;;;6.82;4.95;;;;;;;19.14;51.72;100909.63;4996186;28;20566;-84
2021/05/29 10:53:45;;;;;;;6.60;4.55;;;;;;;19.42;51.07;100911.16;4996294;28;20050;-85
2021/05/29 10:56:20;;;;;;;6.80;4.78;;;;;;;19.53;51.56;100908.53;5003513;28;20085;-84
2021/05/29 10:59:11;;;;;;;6.53;4.75;;;;;;;19.60;50.91;100904.44;4996667;28;20069;-84
2021/05/29 11:01:50;;;;;;;6.50;5.25;;;;;;;19.74;51.19;100906.00;4995896;28;20054;-85
2021/05/29 11:04:17;;;;;;;7.43;4.88;;;;;;;19.82;50.55;100902.75;4995668;28;20108;-84
2021/05/29 11:07:16;;;;;;;7.93;5.18;;;;;;;19.83;50.30;100907.13;4996249;28;20416;-85
2021/05/29 11:09:47;;;;;;;7.40;4.82;;;;;;;19.96;50.44;100903.50;4996416;28;20046;-84
2021/05/29 11:12:15;;;;;;;7.47;4.40;;;;;;;20.02;50.56;100911.06;4994749;28;20100;-85
2021/05/29 11:14:52;;;;;;;7.43;4.60;;;;;;;20.05;49.18;100910.81;4994042;28;20050;-84
2021/05/29 11:17:28;;;;;;;7.50;4.47;;;;;;;20.11;49.15;100896.13;4995075;28;20058;-84
2021/05/29 11:20:07;;;;;;;8.00;4.85;;;;;;;20.14;49.39;100909.22;4996101;28;20050;-84
2021/05/29 11:22:45;;;;;;;6.65;4.75;;;;;;;20.16;49.32;100897.47;4994196;28;20054;-84
2021/05/29 11:25:17;;;;;;;6.22;4.80;;;;;;;20.22;49.35;100896.09;4995244;28;20504;-84
2021/05/29 11:27:46;;;;;;;5.93;4.68;;;;;;;20.26;50.11;100902.91;4996107;28;20444;-85
2021/05/29 11:30:26;;;;;;;6.25;5.25;;;;;;;20.30;49.95;100901.69;4994552;28;20058;-85
2021/05/29 11:35:35;;;;;;;7.47;5.05;;;;;;;20.38;48.63;100903.75;4994870;28;20078;-85
2021/05/29 11:38:25;;;;;;;6.50;5.03;;;;;;;20.44;49.48;100900.59;4998191;28;20065;-85
2021/05/29 11:41:07;;;;;;;6.53;4.88;;;;;;;20.47;49.15;100902.16;4995457;28;20823;-85
2021/05/29 11:43:52;;;;;;;6.70;4.90;;;;;;;20.53;48.77;100908.84;4994288;28;20050;-84
2021/05/29 11:46:20;;;;;;;6.03;4.75;;;;;;;20.65;49.63;100909.66;4995682;28;20286;-85